Terminal Aerodrome Forecast
Issued by NWS

Home | Current Version | Previous Version | Text Only | Print | Product List | Glossary On
Versions: 1 2 3 4 5 6 7 8 9 10 11 12 13 14
000
FTUS46 KSEW 040530
TAFCLM
TAF
KCLM 040530Z 0406/0506 27005KT P6SM -RA OVC035
     FM040800 27016G26KT P6SM VCSH BKN050
     FM041200 27015G25KT P6SM SCT050 SCT250
     FM041600 27012KT P6SM SCT050
     FM050200 29012KT P6SM -SHSN SCT020 BKN045 OVC070=

USA.gov is the U.S. government's official web portal to all federal, state and local government web resources and services.